Time;durP1;ratioP1;P1;durP2;ratioP2;P2;SDS_P1;SDS_P2;PMS_P1;PMS_P2;Temp;Humidity;BMP_temperature;BMP_pressure;BME280_temperature;BME280_humidity;BME280_pressure;Samples;Min_cycle;Max_cycle;Signal;HPM_P1;HPM_P2
2023/05/26 00:01:22;;;;;;;;;12.00;12.00;;;;;19.50;35.65;101977.69;5020816;28;45930;-63
2023/05/26 00:03:48;;;;;;;;;10.50;10.50;;;;;19.56;35.86;101992.59;5021342;28;45330;-63
2023/05/26 00:06:15;;;;;;;;;11.50;9.00;;;;;19.51;35.92;101991.88;5019527;28;45262;-63
2023/05/26 00:08:40;;;;;;;;;12.75;11.50;;;;;19.49;36.08;101987.47;5020898;28;45258;-63
2023/05/26 00:11:07;;;;;;;;;11.25;9.50;;;;;19.47;35.85;101988.44;5020834;28;45282;-63
2023/05/26 00:13:33;;;;;;;;;13.75;12.25;;;;;19.45;36.05;101993.81;5017329;28;45253;-63
2023/05/26 00:15:58;;;;;;;;;13.50;13.25;;;;;19.35;36.11;101976.38;5020958;28;45419;-63
2023/05/26 00:18:26;;;;;;;;;13.50;10.50;;;;;19.39;35.78;101987.81;5021008;28;45238;-64
2023/05/26 00:20:52;;;;;;;;;15.00;13.25;;;;;19.35;36.29;101980.84;5020531;28;45463;-63
2023/05/26 00:23:17;;;;;;;;;11.25;10.50;;;;;19.30;36.32;101979.19;5020558;28;45258;-63
2023/05/26 00:25:42;;;;;;;;;13.75;11.00;;;;;19.28;36.30;101986.38;5020760;28;45383;-63
2023/05/26 00:28:08;;;;;;;;;11.75;11.25;;;;;19.26;35.76;101976.69;5020537;28;53867;-63
2023/05/26 00:30:33;;;;;;;;;12.50;11.25;;;;;19.19;36.24;101975.13;5020535;28;46161;-63
2023/05/26 00:32:58;;;;;;;;;14.75;13.50;;;;;19.20;36.28;101968.88;5020747;28;45385;-64
2023/05/26 00:35:24;;;;;;;;;15.50;12.75;;;;;19.20;36.61;101968.88;5020375;28;45439;-63
2023/05/26 00:37:49;;;;;;;;;13.00;11.25;;;;;19.14;36.54;101967.25;5020456;28;45305;-63
2023/05/26 00:40:15;;;;;;;;;11.75;10.25;;;;;19.11;36.26;101973.56;5020034;28;46491;-64
2023/05/26 00:42:40;;;;;;;;;12.25;10.00;;;;;19.08;36.60;101965.66;5020206;28;45253;-63
2023/05/26 00:45:06;;;;;;;;;14.25;12.50;;;;;19.05;36.27;101955.09;5019683;28;46047;-63
2023/05/26 00:47:31;;;;;;;;;16.75;14.25;;;;;19.03;36.56;101967.59;5020796;28;45328;-63
2023/05/26 00:49:57;;;;;;;;;13.50;12.00;;;;;19.02;36.58;101971.19;5020031;28;46403;-64
2023/05/26 00:52:22;;;;;;;;;12.50;11.50;;;;;18.96;36.73;101961.56;5020554;28;45356;-63
2023/05/26 00:54:49;;;;;;;;;14.50;14.00;;;;;18.96;36.82;101963.38;5018811;28;45240;-63
2023/05/26 00:57:15;;;;;;;;;14.75;12.75;;;;;18.92;36.84;101954.59;5020447;28;45394;-63
2023/05/26 00:59:40;;;;;;;;;12.00;12.00;;;;;18.90;37.16;101963.53;5018645;28;47103;-63
2023/05/26 01:02:06;;;;;;;;;14.50;13.50;;;;;18.87;36.96;101972.47;5019909;28;45365;-64
2023/05/26 01:04:31;;;;;;;;;14.50;13.50;;;;;18.86;37.09;101964.53;5020110;28;45364;-63
2023/05/26 01:06:56;;;;;;;;;14.75;12.00;;;;;18.83;36.81;101960.19;5018760;28;45418;-63
2023/05/26 01:09:22;;;;;;;;;15.75;15.25;;;;;18.78;36.86;101960.31;5020078;28;46420;-63
2023/05/26 01:11:53;;;;;;;;;13.75;12.25;;;;;18.76;37.18;101954.16;5019905;28;45316;-63
2023/05/26 01:14:47;;;;;;;;;12.00;11.75;;;;;18.76;37.18;101959.47;5016796;28;45306;-63
2023/05/26 01:17:18;;;;;;;;;15.25;14.00;;;;;18.73;36.86;101961.34;5020146;28;45225;-63
2023/05/26 01:20:07;;;;;;;;;15.75;13.25;;;;;18.71;37.10;101957.88;5019544;28;45414;-63
2023/05/26 01:22:51;;;;;;;;;13.50;11.50;;;;;18.67;37.06;101963.28;5019760;28;45470;-63
2023/05/26 01:25:31;;;;;;;;;13.75;12.00;;;;;18.63;37.08;101966.94;5019906;28;45234;-63
2023/05/26 01:28:10;;;;;;;;;13.25;13.25;;;;;18.60;37.65;101967.03;5019676;28;45265;-63
2023/05/26 01:30:36;;;;;;;;;15.25;13.25;;;;;18.58;37.07;101966.22;5019610;28;46072;-63
2023/05/26 01:33:02;;;;;;;;;14.00;11.50;;;;;18.55;37.47;101960.94;5018374;28;45415;-63
2023/05/26 01:35:27;;;;;;;;;13.25;13.25;;;;;18.52;37.50;101961.06;5019495;28;45243;-63
2023/05/26 01:37:55;;;;;;;;;14.50;12.25;;;;;18.50;37.26;101957.56;5019679;28;45307;-63
2023/05/26 01:40:20;;;;;;;;;18.50;14.00;;;;;18.47;37.23;101968.28;5019429;28;46398;-63
2023/05/26 01:42:55;;;;;;;;;12.50;12.50;;;;;18.46;37.44;101975.38;5019682;28;45393;-63
2023/05/26 01:45:23;;;;;;;;;13.25;11.00;;;;;18.39;37.33;101962.31;5019772;28;45459;-63
2023/05/26 01:47:54;;;;;;;;;12.50;12.50;;;;;18.42;37.42;101981.72;5018223;28;45534;-63
2023/05/26 01:50:23;;;;;;;;;14.75;13.00;;;;;18.39;37.53;101976.50;5019126;28;46605;-63
2023/05/26 01:52:51;;;;;;;;;14.75;13.75;;;;;18.39;37.36;101986.25;5018076;28;45451;-63
2023/05/26 01:55:20;;;;;;;;;14.75;14.75;;;;;18.34;37.35;101981.06;5020876;28;45293;-63
2023/05/26 01:57:48;;;;;;;;;11.25;11.25;;;;;18.35;37.63;101985.47;5023139;28;45515;-63
2023/05/26 02:00:13;;;;;;;;;15.75;13.50;;;;;18.31;37.91;101984.69;5022662;28;45333;-63
2023/05/26 02:02:38;;;;;;;;;12.25;12.25;;;;;18.29;37.82;101981.19;5022992;28;45312;-63
2023/05/26 02:05:04;;;;;;;;;15.50;14.25;;;;;18.29;37.90;101993.63;5020865;28;49675;-63
2023/05/26 02:07:29;;;;;;;;;17.25;16.25;;;;;18.27;37.45;101984.81;5023051;28;45301;-63
2023/05/26 02:09:55;;;;;;;;;15.25;14.25;;;;;18.24;37.42;101983.09;5021126;28;47858;-63
2023/05/26 02:12:20;;;;;;;;;14.25;13.00;;;;;18.18;37.53;101983.25;5021605;28;45431;-64
2023/05/26 02:14:46;;;;;;;;;21.50;15.00;;;;;18.19;37.75;101985.03;5035935;28;45187;-63
2023/05/26 02:17:13;;;;;;;;;20.00;15.50;;;;;18.12;37.79;101973.66;5022846;28;45556;-63
2023/05/26 02:19:40;;;;;;;;;15.75;14.25;;;;;18.12;37.46;101984.28;5022227;28;46454;-63
2023/05/26 02:22:05;;;;;;;;;17.75;16.50;;;;;18.04;37.88;101978.31;5022701;28;45440;-64
2023/05/26 02:24:31;;;;;;;;;17.00;15.25;;;;;18.08;37.91;101985.28;5022365;28;45312;-63
2023/05/26 02:26:56;;;;;;;;;21.25;17.50;;;;;18.05;37.98;101984.50;5022620;28;45404;-63
2023/05/26 02:29:21;;;;;;;;;17.50;16.50;;;;;18.00;37.95;101984.63;5022049;28;57227;-63
2023/05/26 02:31:47;;;;;;;;;22.00;17.25;;;;;17.98;38.21;101981.13;5022666;28;45423;-63
2023/05/26 02:34:12;;;;;;;;;19.00;18.75;;;;;17.93;38.03;101975.03;5022232;28;45407;-63
2023/05/26 02:36:37;;;;;;;;;16.75;16.50;;;;;17.91;38.15;101982.16;5022636;28;45391;-63
2023/05/26 02:39:03;;;;;;;;;16.00;14.50;;;;;17.87;38.19;101982.25;5020624;28;47012;-63
2023/05/26 02:41:28;;;;;;;;;17.50;15.25;;;;;17.81;38.45;101977.06;5022411;28;45282;-63
2023/05/26 02:43:53;;;;;;;;;23.00;18.75;;;;;17.80;38.45;101977.13;5004338;28;46942;-63
2023/05/26 02:46:19;;;;;;;;;19.25;17.25;;;;;17.77;38.32;101980.69;5022532;28;45326;-63
2023/05/26 02:48:44;;;;;;;;;19.25;16.75;;;;;17.73;38.29;101981.69;5020669;28;45334;-64
2023/05/26 02:51:10;;;;;;;;;17.00;16.50;;;;;17.69;38.35;101972.06;5022332;28;47046;-63
2023/05/26 02:53:35;;;;;;;;;20.00;17.00;;;;;17.64;38.36;101977.47;5022068;28;45388;-63
2023/05/26 02:56:00;;;;;;;;;23.50;19.00;;;;;17.60;38.37;101980.25;5022226;28;45295;-63
2023/05/26 02:58:27;;;;;;;;;16.25;15.75;;;;;17.60;38.72;101978.47;5021827;28;51767;-63
2023/05/26 03:00:53;;;;;;;;;21.50;18.25;;;;;17.61;38.67;101980.22;5022205;28;45324;-63
2023/05/26 03:03:18;;;;;;;;;21.50;16.75;;;;;17.57;38.57;101977.66;5022044;28;45205;-63
2023/05/26 03:05:43;;;;;;;;;22.75;20.50;;;;;17.52;38.74;101978.66;5015209;28;45188;-63
2023/05/26 03:08:09;;;;;;;;;20.25;19.00;;;;;17.55;38.72;101975.91;5017366;28;56798;-63
2023/05/26 03:10:35;;;;;;;;;22.00;19.25;;;;;17.52;38.71;101975.09;5022122;28;46759;-63
2023/05/26 03:13:00;;;;;;;;;19.25;15.25;;;;;17.47;38.17;101975.25;5020074;28;45424;-63
2023/05/26 03:15:36;;;;;;;;;22.25;18.75;;;;;17.44;38.98;101969.13;5021864;28;45312;-64
2023/05/26 03:18:01;;;;;;;;;20.00;17.25;;;;;17.42;38.97;101976.25;5021870;28;45347;-63
2023/05/26 03:20:27;;;;;;;;;18.00;17.00;;;;;17.38;39.00;101972.78;5022046;28;45315;-63
2023/05/26 03:22:52;;;;;;;;;23.00;18.00;;;;;17.37;39.08;101985.19;5021695;28;45442;-63
2023/05/26 03:25:18;;;;;;;;;18.00;15.75;;;;;17.28;38.95;101972.13;5021686;28;49868;-63
2023/05/26 03:27:43;;;;;;;;;18.75;16.50;;;;;17.29;39.19;101973.00;5020472;28;46777;-63
2023/05/26 03:30:09;;;;;;;;;21.25;18.00;;;;;17.24;38.97;101969.56;5021816;28;45361;-63
2023/05/26 03:32:35;;;;;;;;;18.25;16.25;;;;;17.20;39.25;101979.41;5021792;28;45392;-63
2023/05/26 03:35:01;;;;;;;;;20.25;19.00;;;;;17.17;39.28;101976.81;5020584;28;45332;-63
2023/05/26 03:37:26;;;;;;;;;21.00;19.75;;;;;17.13;39.27;101972.47;5021522;28;45808;-63
2023/05/26 03:39:51;;;;;;;;;16.25;16.00;;;;;17.10;39.41;101970.75;5021295;28;45355;-63
2023/05/26 03:42:17;;;;;;;;;16.50;15.00;;;;;17.08;39.53;101966.38;5021651;28;45451;-63
2023/05/26 03:44:42;;;;;;;;;22.50;19.75;;;;;17.04;39.42;101962.91;5020272;28;45253;-63
2023/05/26 03:47:09;;;;;;;;;19.25;16.25;;;;;17.05;39.60;101967.31;5021449;28;45250;-63
2023/05/26 03:49:34;;;;;;;;;18.00;15.75;;;;;17.01;39.55;101965.66;5020187;28;45430;-63
2023/05/26 03:52:00;;;;;;;;;17.75;16.50;;;;;16.96;39.72;101965.75;5021491;28;45420;-63
2023/05/26 03:54:25;;;;;;;;;20.75;16.25;;;;;16.93;39.42;101964.94;5021233;28;45218;-63
2023/05/26 03:56:50;;;;;;;;;20.00;16.25;;;;;16.89;39.85;101964.09;5002554;28;51636;-63
2023/05/26 03:59:16;;;;;;;;;17.50;15.50;;;;;16.89;39.66;101969.41;5021492;28;45334;-63
2023/05/26 04:01:41;;;;;;;;;21.00;16.50;;;;;16.81;39.75;101958.94;5021380;28;45412;-63
2023/05/26 04:04:07;;;;;;;;;15.75;15.75;;;;;16.81;39.78;101958.09;5021289;28;45464;-63
2023/05/26 04:06:32;;;;;;;;;19.25;16.75;;;;;16.75;39.85;101964.38;5031390;28;45971;-63
2023/05/26 04:09:00;;;;;;;;;18.75;14.00;;;;;16.76;39.71;101971.44;5021068;28;45478;-63
2023/05/26 04:11:26;;;;;;;;;19.75;18.50;;;;;16.72;39.64;101975.06;5021157;28;45232;-63
2023/05/26 04:13:51;;;;;;;;;15.75;15.25;;;;;16.70;40.12;101972.44;5020322;28;45251;-64
2023/05/26 04:16:16;;;;;;;;;16.00;14.25;;;;;16.69;40.30;101973.34;5020999;28;45408;-63
2023/05/26 04:18:42;;;;;;;;;16.00;13.75;;;;;16.68;40.22;101974.25;5020805;28;45141;-63
2023/05/26 04:21:08;;;;;;;;;17.50;15.50;;;;;16.68;39.74;101978.69;5021137;28;45243;-63
2023/05/26 04:23:33;;;;;;;;;21.75;17.75;;;;;16.69;39.87;101977.75;5020721;28;45163;-63
2023/05/26 04:26:00;;;;;;;;;15.25;14.25;;;;;16.64;40.21;101969.03;5020680;28;46657;-63
2023/05/26 04:28:26;;;;;;;;;15.00;13.50;;;;;16.65;39.91;101984.06;5020771;28;45456;-64
2023/05/26 04:30:51;;;;;;;;;13.00;12.75;;;;;16.61;40.09;101977.06;5020807;28;45490;-63
2023/05/26 04:33:17;;;;;;;;;16.00;15.00;;;;;16.58;39.91;101973.56;5019406;28;45380;-63
2023/05/26 04:35:44;;;;;;;;;14.75;13.50;;;;;16.57;40.03;101979.75;5020641;28;45370;-64
2023/05/26 04:38:12;;;;;;;;;18.75;16.00;;;;;16.58;40.21;101978.88;5020575;28;45366;-63
2023/05/26 04:40:37;;;;;;;;;17.25;12.00;;;;;16.55;40.29;101973.63;5019214;28;45446;-63
2023/05/26 04:43:03;;;;;;;;;14.75;14.25;;;;;16.53;40.27;101975.44;5020674;28;45334;-63
2023/05/26 04:45:28;;;;;;;;;17.00;14.50;;;;;16.54;40.50;101979.84;5020468;28;47115;-63
2023/05/26 04:47:56;;;;;;;;;21.25;13.75;;;;;16.47;40.30;101980.00;5020745;28;45260;-63
2023/05/26 04:50:23;;;;;;;;;16.50;15.00;;;;;16.53;40.42;101995.78;5020599;28;45278;-63
2023/05/26 04:52:49;;;;;;;;;18.50;12.75;;;;;16.50;40.41;101991.41;5018486;28;45507;-63
2023/05/26 04:55:15;;;;;;;;;18.00;14.50;;;;;16.49;40.55;101997.63;5020164;28;46272;-64
2023/05/26 04:57:41;;;;;;;;;14.75;14.00;;;;;16.48;40.77;102005.63;5020546;28;45254;-63
2023/05/26 05:00:09;;;;;;;;;19.50;15.50;;;;;16.44;40.34;101990.66;5020265;28;45482;-63
2023/05/26 05:02:35;;;;;;;;;20.50;16.50;;;;;16.44;40.92;101995.94;5020319;28;45553;-63
2023/05/26 05:05:00;;;;;;;;;20.25;10.25;;;;;16.40;40.45;101992.47;5022627;28;45205;-64
2023/05/26 05:07:25;;;;;;;;;19.00;16.75;;;;;16.40;40.56;102000.44;5029620;28;45378;-63
2023/05/26 05:09:51;;;;;;;;;15.00;14.00;;;;;16.39;40.54;102001.38;5018608;28;45290;-64
2023/05/26 05:12:16;;;;;;;;;16.50;13.75;;;;;16.39;40.74;102006.66;5020564;28;46636;-64
2023/05/26 05:14:42;;;;;;;;;19.00;15.00;;;;;16.37;40.65;102003.16;5016948;28;45404;-63
2023/05/26 05:17:07;;;;;;;;;19.50;13.75;;;;;16.36;40.76;102010.25;5020199;28;45396;-63
2023/05/26 05:19:32;;;;;;;;;22.25;16.00;;;;;16.31;40.61;102000.63;5020292;28;45361;-63
2023/05/26 05:21:57;;;;;;;;;13.75;13.50;;;;;16.36;40.82;102017.31;5018815;28;45556;-64
2023/05/26 05:24:23;;;;;;;;;18.50;14.75;;;;;16.33;41.01;102022.69;5019885;28;45253;-64
2023/05/26 05:26:48;;;;;;;;;20.50;15.75;;;;;16.35;41.11;102020.88;5019857;28;45403;-64
2023/05/26 05:29:13;;;;;;;;;18.75;14.25;;;;;16.35;41.16;102023.53;5018021;28;45327;-63
2023/05/26 05:31:39;;;;;;;;;18.50;15.00;;;;;16.35;40.85;102024.41;5020020;28;45367;-64
2023/05/26 05:34:04;;;;;;;;;15.25;13.50;;;;;16.35;41.06;102031.47;5018553;28;46878;-63
2023/05/26 05:36:31;;;;;;;;;21.25;15.25;;;;;16.34;41.17;102029.72;5018580;28;45456;-63
2023/05/26 05:38:57;;;;;;;;;16.25;14.75;;;;;16.33;40.94;102033.31;5019659;28;45285;-64
2023/05/26 05:41:22;;;;;;;;;14.75;13.00;;;;;16.34;41.06;102032.38;5019636;28;45394;-63
2023/05/26 05:43:47;;;;;;;;;19.50;15.00;;;;;16.32;41.20;102028.91;5019679;28;45922;-63
2023/05/26 05:46:13;;;;;;;;;14.00;13.25;;;;;16.33;41.29;102047.44;5019859;28;45214;-62
2023/05/26 05:48:41;;;;;;;;;17.75;14.00;;;;;16.33;41.11;102039.47;5019935;28;45288;-64
2023/05/26 05:51:07;;;;;;;;;19.25;16.50;;;;;16.33;41.29;102043.91;5019982;28;45451;-63
2023/05/26 05:53:32;;;;;;;;;14.00;13.75;;;;;16.31;41.05;102037.75;5019119;28;46241;-63
2023/05/26 05:55:57;;;;;;;;;21.00;17.75;;;;;16.34;41.25;102042.97;5019538;28;45374;-63
2023/05/26 05:58:23;;;;;;;;;17.75;13.75;;;;;16.36;41.43;102042.09;5018468;28;46707;-63
2023/05/26 06:00:48;;;;;;;;;17.50;14.50;;;;;16.37;41.32;102041.16;5019723;28;45384;-63
2023/05/26 06:03:13;;;;;;;;;17.00;13.50;;;;;16.39;41.35;102046.47;5018006;28;47550;-63
2023/05/26 06:05:40;;;;;;;;;19.25;15.75;;;;;16.40;41.47;102043.78;5025977;28;45292;-63
2023/05/26 06:08:05;;;;;;;;;15.75;14.25;;;;;16.41;41.45;102044.63;5023212;28;45375;-63
2023/05/26 06:10:30;;;;;;;;;16.75;13.75;;;;;16.43;41.31;102045.50;5018158;28;45347;-63
2023/05/26 06:12:56;;;;;;;;;14.00;11.00;;;;;16.42;41.39;102041.09;5017760;28;46187;-63
2023/05/26 06:15:21;;;;;;;;;17.25;13.75;;;;;16.47;41.66;102051.63;5019341;28;45214;-64
2023/05/26 06:17:47;;;;;;;;;20.50;15.00;;;;;16.48;41.42;102048.94;5019480;28;45182;-64
2023/05/26 06:20:12;;;;;;;;;14.25;13.00;;;;;16.52;41.39;102053.28;5018014;28;45328;-64
2023/05/26 06:22:38;;;;;;;;;15.00;15.00;;;;;16.52;41.46;102050.63;5018911;28;46070;-65
2023/05/26 06:25:04;;;;;;;;;20.75;17.00;;;;;16.54;41.49;102051.47;5019480;28;45308;-63
2023/05/26 06:27:30;;;;;;;;;15.50;14.50;;;;;16.61;41.41;102059.31;5019325;28;45461;-63
2023/05/26 06:29:55;;;;;;;;;17.75;13.50;;;;;16.62;41.48;102058.44;5018032;28;45569;-57
2023/05/26 06:32:21;;;;;;;;;18.75;15.00;;;;;16.66;41.80;102060.13;5019050;28;45412;-58
2023/05/26 06:34:47;;;;;;;;;22.25;17.00;;;;;16.67;41.86;102054.78;5019315;28;45384;-58
2023/05/26 06:37:12;;;;;;;;;18.00;14.25;;;;;16.71;41.78;102060.91;5019248;28;45410;-54
2023/05/26 06:39:38;;;;;;;;;14.75;12.75;;;;;16.72;41.79;102049.38;5018971;28;45551;-64
2023/05/26 06:42:03;;;;;;;;;22.00;17.75;;;;;16.75;41.38;102051.97;5021333;28;45379;-64
2023/05/26 06:44:29;;;;;;;;;19.00;16.50;;;;;16.81;41.42;102056.28;5022656;28;45211;-65
2023/05/26 06:46:54;;;;;;;;;19.50;13.75;;;;;16.83;41.69;102052.69;5020692;28;45319;-63
2023/05/26 06:49:19;;;;;;;;;19.25;16.00;;;;;16.85;41.85;102056.19;5010825;28;45511;-64
2023/05/26 06:51:45;;;;;;;;;16.75;13.50;;;;;16.91;41.49;102055.22;5022363;28;46081;-64
2023/05/26 06:54:10;;;;;;;;;24.00;15.50;;;;;16.95;41.77;102050.75;5022322;28;45321;-64
2023/05/26 06:56:35;;;;;;;;;18.00;13.75;;;;;16.99;41.77;102057.72;5022564;28;45312;-64
2023/05/26 06:59:01;;;;;;;;;19.50;18.75;;;;;16.97;41.87;102043.63;5021911;28;45187;-64
2023/05/26 07:01:26;;;;;;;;;17.25;15.50;;;;;17.03;41.83;102057.66;5022142;28;46331;-64
2023/05/26 07:03:51;;;;;;;;;16.00;14.50;;;;;17.04;41.62;102054.09;5022498;28;45204;-64
2023/05/26 07:06:17;;;;;;;;;17.75;15.50;;;;;17.05;41.93;102055.81;5034082;28;45450;-65
2023/05/26 07:08:42;;;;;;;;;9.25;8.25;;;;;17.09;41.99;102055.78;5022234;28;45309;-65
2023/05/26 07:11:09;;;;;;;;;16.75;14.25;;;;;17.13;41.89;102055.69;5022025;28;46404;-65
2023/05/26 07:13:34;;;;;;;;;21.00;16.75;;;;;17.16;41.40;102055.59;5021875;28;45238;-65
2023/05/26 07:16:00;;;;;;;;;25.50;18.75;;;;;17.19;41.83;102049.34;5022194;28;45221;-65
2023/05/26 07:18:25;;;;;;;;;22.50;16.75;;;;;17.21;41.69;102053.72;5021905;28;45220;-65
2023/05/26 07:20:50;;;;;;;;;26.25;19.25;;;;;17.25;41.72;102045.72;5020482;28;47045;-65
2023/05/26 07:23:16;;;;;;;;;14.50;12.75;;;;;17.27;41.64;102047.41;5020539;28;45354;-65
2023/05/26 07:25:41;;;;;;;;;17.00;14.75;;;;;17.29;41.70;102044.72;5022051;28;45304;-65
2023/05/26 07:28:06;;;;;;;;;18.00;14.75;;;;;17.33;41.91;102049.94;5021986;28;45396;-65
2023/05/26 07:30:32;;;;;;;;;16.25;15.75;;;;;17.36;41.77;102057.84;5021446;28;57878;-65
2023/05/26 07:32:57;;;;;;;;;15.50;13.25;;;;;17.40;41.79;102056.00;5020556;28;45338;-65
2023/05/26 07:35:22;;;;;;;;;20.50;16.00;;;;;17.42;41.96;102059.50;5020609;28;45372;-65
2023/05/26 07:37:48;;;;;;;;;18.75;15.75;;;;;17.44;41.90;102054.16;5019856;28;45655;-65
2023/05/26 07:40:13;;;;;;;;;19.50;18.00;;;;;17.47;41.72;102064.69;5021389;28;46019;-65
2023/05/26 07:42:38;;;;;;;;;14.75;14.50;;;;;17.50;42.05;102059.31;5021743;28;45616;-65
2023/05/26 07:45:04;;;;;;;;;21.00;16.75;;;;;17.53;41.85;102049.50;5021714;28;45499;-65
2023/05/26 07:47:31;;;;;;;;;16.75;13.00;;;;;17.55;42.08;102049.47;5021849;28;45452;-65
2023/05/26 07:49:58;;;;;;;;;21.00;17.50;;;;;17.54;41.52;102045.91;5020041;28;47694;-65
2023/05/26 07:52:24;;;;;;;;;19.00;14.00;;;;;17.66;42.34;102057.16;5020752;28;45419;-65
2023/05/26 07:54:49;;;;;;;;;16.00;14.00;;;;;17.68;41.84;102050.03;5021357;28;45483;-65
2023/05/26 07:57:14;;;;;;;;;23.00;16.25;;;;;17.71;41.90;102050.00;5021666;28;45440;-64
2023/05/26 07:59:39;;;;;;;;;17.25;14.75;;;;;17.78;41.83;102054.22;5021344;28;45178;-65
2023/05/26 08:02:05;;;;;;;;;18.25;16.25;;;;;17.83;41.89;102055.00;5020087;28;45305;-65
2023/05/26 08:04:30;;;;;;;;;19.00;16.50;;;;;17.87;42.07;102059.34;5021543;28;45451;-65
2023/05/26 08:06:55;;;;;;;;;17.75;15.25;;;;;17.87;41.90;102056.69;5026181;28;56502;-65
2023/05/26 08:09:21;;;;;;;;;23.50;16.25;;;;;17.96;41.96;102057.41;5021063;28;45976;-65
2023/05/26 08:11:46;;;;;;;;;17.50;14.75;;;;;17.98;41.91;102052.94;5021280;28;45351;-65
2023/05/26 08:14:11;;;;;;;;;18.00;17.00;;;;;18.02;42.23;102055.47;5021016;28;45419;-65
2023/05/26 08:16:37;;;;;;;;;28.00;20.00;;;;;18.07;41.98;102066.00;5019968;28;45472;-65
2023/05/26 08:19:02;;;;;;;;;23.25;17.00;;;;;18.12;41.95;102064.09;5021061;28;45253;-65
2023/05/26 08:21:27;;;;;;;;;19.25;15.75;;;;;18.16;42.10;102065.78;5021058;28;45295;-64
2023/05/26 08:23:53;;;;;;;;;17.00;14.50;;;;;18.21;42.05;102070.97;5019599;28;45424;-64
2023/05/26 08:26:18;;;;;;;;;22.50;18.00;;;;;18.26;41.98;102065.53;5020919;28;45323;-64
2023/05/26 08:28:43;;;;;;;;;17.00;15.25;;;;;18.30;41.95;102061.88;5019300;28;52931;-64
2023/05/26 08:31:09;;;;;;;;;19.50;16.00;;;;;18.34;41.88;102059.09;5021077;28;45341;-64
2023/05/26 08:33:34;;;;;;;;;19.75;16.25;;;;;18.39;42.13;102056.34;5020914;28;45467;-64
2023/05/26 08:35:59;;;;;;;;;15.00;14.50;;;;;18.45;41.99;102060.59;5021026;28;45270;-64
2023/05/26 08:38:25;;;;;;;;;21.50;15.75;;;;;18.52;41.88;102062.19;5019384;28;47381;-64
2023/05/26 08:40:55;;;;;;;;;20.00;15.25;;;;;18.52;42.00;102054.22;5020601;28;45321;-65
2023/05/26 08:43:32;;;;;;;;;16.25;15.00;;;;;18.62;41.90;102060.16;5020903;28;45237;-65
2023/05/26 08:46:01;;;;;;;;;25.75;18.75;;;;;18.67;42.16;102052.94;5019422;28;45410;-64
2023/05/26 08:48:27;;;;;;;;;13.75;12.25;;;;;18.71;42.22;102049.25;5019445;28;45296;-64
2023/05/26 08:50:56;;;;;;;;;21.50;16.50;;;;;18.76;41.93;102046.47;5020525;28;45229;-65
2023/05/26 08:53:23;;;;;;;;;18.75;16.75;;;;;18.82;41.99;102054.28;5020594;28;45350;-65
2023/05/26 08:55:49;;;;;;;;;17.50;16.50;;;;;18.88;41.71;102042.56;5018981;28;45464;-65
2023/05/26 08:58:16;;;;;;;;;22.25;17.25;;;;;18.93;42.19;102043.34;5020614;28;45324;-64
2023/05/26 09:00:45;;;;;;;;;19.25;16.00;;;;;18.98;42.22;102047.63;5020345;28;45336;-64
2023/05/26 09:03:11;;;;;;;;;20.75;17.75;;;;;19.00;42.57;102042.25;5020582;28;45312;-64
2023/05/26 09:05:36;;;;;;;;;19.75;16.25;;;;;19.09;41.88;102046.44;5024545;28;45412;-64
2023/05/26 09:08:01;;;;;;;;;17.75;15.75;;;;;19.12;42.15;102044.56;5020094;28;47791;-65
2023/05/26 09:10:30;;;;;;;;;21.75;19.25;;;;;19.20;42.21;102052.34;5018868;28;45345;-64
2023/05/26 09:13:04;;;;;;;;;17.00;15.25;;;;;19.24;42.00;102047.78;5020221;28;45323;-64
2023/05/26 09:15:29;;;;;;;;;18.50;16.75;;;;;19.30;42.07;102042.28;5019823;28;45292;-65
2023/05/26 09:18:01;;;;;;;;;25.25;21.50;;;;;19.35;41.97;102043.00;5020235;28;46192;-63
2023/05/26 09:20:28;;;;;;;;;24.50;18.75;;;;;19.43;41.91;102050.75;5020071;28;45328;-64
2023/05/26 09:22:56;;;;;;;;;16.75;15.75;;;;;19.46;42.34;102048.88;5019967;28;45274;-64
2023/05/26 09:25:24;;;;;;;;;17.75;16.00;;;;;19.53;41.91;102046.03;5018574;28;45270;-64
2023/05/26 09:27:49;;;;;;;;;18.00;17.75;;;;;19.55;42.44;102039.72;5019991;28;46144;-63
2023/05/26 09:30:14;;;;;;;;;23.50;20.75;;;;;19.68;42.33;102052.69;5018577;28;45712;-64
2023/05/26 09:32:40;;;;;;;;;20.50;19.25;;;;;19.73;41.86;102043.59;5019736;28;52455;-64
2023/05/26 09:35:05;;;;;;;;;18.00;15.50;;;;;19.79;42.07;102046.06;5019964;28;45461;-64
2023/05/26 09:37:32;;;;;;;;;19.00;15.25;;;;;19.87;42.26;102037.84;5019792;28;46176;-63
2023/05/26 09:40:11;;;;;;;;;23.00;18.75;;;;;19.96;41.67;102050.00;5019686;28;45340;-64
2023/05/26 09:42:38;;;;;;;;;17.75;15.50;;;;;20.03;42.05;102042.69;5018551;28;45278;-64
2023/05/26 09:45:03;;;;;;;;;16.50;13.50;;;;;20.10;42.08;102053.09;5019940;28;45478;-64
2023/05/26 09:47:34;;;;;;;;;15.25;14.00;;;;;20.17;41.75;102039.56;5019676;28;46458;-64
2023/05/26 09:50:04;;;;;;;;;17.50;17.50;;;;;20.23;42.23;102037.53;5019972;28;45300;-64
2023/05/26 09:52:30;;;;;;;;;19.75;14.00;;;;;20.34;41.65;102042.50;5019474;28;45351;-64
2023/05/26 09:54:56;;;;;;;;;19.25;17.00;;;;;20.44;42.20;102045.75;5019294;28;46161;-64
2023/05/26 09:57:24;;;;;;;;;19.75;16.25;;;;;20.51;41.96;102033.91;5019565;28;46394;-64
2023/05/26 09:59:53;;;;;;;;;18.50;15.00;;;;;20.62;42.06;102030.84;5018436;28;45358;-65
2023/05/26 10:02:21;;;;;;;;;26.75;24.25;;;;;20.75;42.18;102040.22;5019659;28;45461;-64
2023/05/26 10:04:49;;;;;;;;;22.25;15.25;;;;;20.87;42.15;102038.88;5020074;28;45329;-64
2023/05/26 10:07:16;;;;;;;;;16.00;15.25;;;;;20.96;42.22;102026.97;5021303;28;46586;-64
2023/05/26 10:09:44;;;;;;;;;12.75;12.25;;;;;21.11;42.31;102034.41;5019771;28;45229;-65
2023/05/26 10:12:11;;;;;;;;;16.00;14.00;;;;;21.31;41.61;102038.13;5019533;28;45443;-65
2023/05/26 10:14:37;;;;;;;;;17.75;15.50;;;;;21.51;42.26;102037.31;5018014;28;45678;-65
2023/05/26 10:17:03;;;;;;;;;18.25;15.50;;;;;21.73;42.16;102033.81;5020599;28;47214;-65
2023/05/26 10:19:30;;;;;;;;;18.75;17.75;;;;;21.99;42.02;102038.09;5023008;28;45433;-65
2023/05/26 10:22:01;;;;;;;;;15.25;14.00;;;;;22.28;41.85;102038.66;5021665;28;45432;-65
2023/05/26 10:24:39;;;;;;;;;15.75;12.50;;;;;22.61;42.17;102032.78;5022748;28;45356;-65
2023/05/26 10:27:28;;;;;;;;;17.50;14.25;;;;;22.97;42.27;102023.16;5022656;28;45996;-65
2023/05/26 10:30:04;;;;;;;;;18.00;16.50;;;;;23.41;42.40;102033.63;5022584;28;45236;-65
2023/05/26 10:32:46;;;;;;;;;18.00;18.00;;;;;23.95;42.47;102022.06;5021557;28;45247;-65
2023/05/26 10:35:24;;;;;;;;;24.75;24.00;;;;;24.50;42.33;102023.72;5022621;28;45553;-64
2023/05/26 10:38:01;;;;;;;;;16.75;15.00;;;;;25.10;42.33;102030.38;5022248;28;46179;-65
2023/05/26 10:40:36;;;;;;;;;17.75;15.50;;;;;25.67;42.22;102023.63;5022414;28;45436;-65
2023/05/26 10:43:18;;;;;;;;;14.25;11.00;;;;;26.32;42.41;102026.09;5021268;28;45487;-65
2023/05/26 10:45:50;;;;;;;;;16.00;13.00;;;;;26.97;42.11;102022.13;5021314;28;45290;-65
2023/05/26 10:48:16;;;;;;;;;13.75;11.25;;;;;27.59;42.52;102025.38;5021072;28;46213;-65
2023/05/26 10:50:58;;;;;;;;;16.00;11.50;;;;;28.28;42.30;102019.84;5022475;28;45190;-65
2023/05/26 10:53:25;;;;;;;;;16.00;13.25;;;;;28.90;41.79;102018.22;5022313;28;45396;-65
2023/05/26 10:56:25;;;;;;;;;12.75;12.75;;;;;29.59;41.76;102018.56;5022211;28;45563;-66
2023/05/26 10:58:55;;;;;;;;;19.75;16.75;;;;;30.20;41.29;102017.59;5013546;28;46436;-66
2023/05/26 11:01:31;;;;;;;;;13.75;13.00;;;;;30.82;40.67;102014.59;5022393;28;45337;-66
2023/05/26 11:04:09;;;;;;;;;15.25;13.25;;;;;31.38;40.69;102009.09;5022227;28;45346;-66
2023/05/26 11:06:52;;;;;;;;;16.00;13.25;;;;;31.92;40.50;102011.88;5027318;28;45460;-66
2023/05/26 11:09:22;;;;;;;;;16.50;13.00;;;;;32.40;39.74;102003.22;5021709;28;46263;-66